Time;durP1;ratioP1;P1;durP2;ratioP2;P2;SDS_P1;SDS_P2;PMS_P1;PMS_P2;Temp;Humidity;BMP_temperature;BMP_pressure;BME280_temperature;BME280_humidity;BME280_pressure;Samples;Min_cycle;Max_cycle;Signal;HPM_P1;HPM_P2
2023/05/29 04:30:18;;;;;;;14.82;6.05;;;;;;;9.99;81.33;96624.91;2083265;27;20564;-55
2023/05/29 04:31:22;;;;;;;16.02;6.32;;;;;;;9.98;81.44;96618.84;2081993;28;20663;-56
2023/05/29 08:01:52;;;;;;;14.55;3.80;;;;;;;20.85;51.79;96747.06;2082610;28;20560;-59
2023/05/29 08:04:09;;;;;;;11.20;4.15;;;;;;;20.83;51.51;96753.47;2084859;28;20532;-59
2023/05/29 08:06:24;;;;;;;12.02;5.03;;;;;;;21.24;49.70;96753.56;2085855;28;20563;-61
2023/05/29 08:08:39;;;;;;;10.20;4.15;;;;;;;21.44;50.37;96743.88;2084203;28;20552;-59
2023/05/29 08:10:58;;;;;;;10.25;4.88;;;;;;;21.16;49.88;96759.53;2091743;27;20972;-59
2023/05/29 08:13:20;;;;;;;18.38;6.10;;;;;;;21.47;50.09;96755.06;2091504;27;20562;-59
2023/05/29 08:15:56;;;;;;;9.43;3.70;;;;;;;21.82;50.45;96761.75;2088929;28;21054;-59
2023/05/29 08:18:17;;;;;;;9.05;4.43;;;;;;;21.89;49.15;96759.44;2083814;28;20556;-59
2023/05/29 08:20:54;;;;;;;8.07;4.40;;;;;;;21.40;50.65;96756.56;2085895;28;20559;-56
2023/05/29 08:21:57;;;;;;;10.23;4.95;;;;;;;21.40;50.00;96743.28;2080462;28;20196;-58
2023/05/29 08:24:20;;;;;;;10.02;4.70;;;;;;;21.81;49.24;96751.28;2092586;27;20551;-56
2023/05/29 08:25:21;;;;;;;10.70;4.57;;;;;;;21.68;48.35;96749.69;2080764;28;20220;-56
2023/05/29 08:27:51;;;;;;;12.55;6.15;;;;;;;21.15;49.80;96757.84;2116113;27;20551;-56
2023/05/29 08:28:52;;;;;;;15.40;4.32;;;;;;;21.45;50.19;96751.69;2110898;28;20617;-56
2023/05/29 08:31:38;;;;;;;11.93;5.32;;;;;;;22.16;49.14;96760.59;2083511;28;20541;-57
2023/05/29 08:32:40;;;;;;;8.73;4.50;;;;;;;22.01;48.25;96739.69;2079334;28;20196;-57
2023/05/29 08:33:42;;;;;;;12.68;5.15;;;;;;;22.13;48.97;96759.03;2076178;28;20193;-57
2023/05/29 08:36:17;;;;;;;12.98;5.25;;;;;;;22.28;49.41;96761.28;2083035;28;20557;-56
2023/05/29 08:37:19;;;;;;;14.77;4.85;;;;;;;22.44;49.60;96758.94;2080475;28;20221;-57
2023/05/29 08:38:21;;;;;;;10.60;4.22;;;;;;;22.43;49.28;96764.41;2083655;28;20196;-57
2023/05/29 08:39:22;;;;;;;10.32;4.65;;;;;;;22.34;49.21;96753.59;2083957;28;20196;-56
2023/05/29 08:42:21;;;;;;;13.82;4.47;;;;;;;22.44;48.34;96750.13;2107513;27;20575;-56
2023/05/29 08:43:23;;;;;;;12.18;4.40;;;;;;;22.67;48.25;96759.47;2103589;28;20335;-56
2023/05/29 08:44:29;;;;;;;10.75;4.85;;;;;;;22.80;47.73;96764.53;2106929;27;20244;-57
2023/05/29 08:45:36;;;;;;;11.40;5.07;;;;;;;22.83;46.93;96766.91;2094129;28;20203;-56
2023/05/29 08:46:40;;;;;;;11.80;4.53;;;;;;;22.79;47.22;96762.84;2096515;28;20196;-56
2023/05/29 08:47:42;;;;;;;11.63;4.97;;;;;;;22.85;47.23;96763.25;2096400;28;20336;-57
2023/05/29 08:48:49;;;;;;;11.20;4.18;;;;;;;22.75;46.95;96763.25;2095669;28;20423;-56
2023/05/29 08:49:53;;;;;;;8.63;4.53;;;;;;;22.59;46.93;96761.16;2092294;28;20245;-56
2023/05/29 08:52:53;;;;;;;10.43;4.60;;;;;;;22.97;48.19;96762.13;2100992;27;20547;-59
2023/05/29 08:53:55;;;;;;;10.57;4.32;;;;;;;22.93;47.18;96766.03;2094666;28;20219;-59
2023/05/29 08:54:58;;;;;;;16.25;4.60;;;;;;;23.01;46.46;96755.53;2082079;28;20278;-59
2023/05/29 08:56:00;;;;;;;11.30;4.88;;;;;;;22.82;46.18;96754.56;2079571;28;20221;-59
2023/05/29 08:57:03;;;;;;;10.38;4.97;;;;;;;23.20;47.05;96764.47;2078098;28;20199;-59
2023/05/29 08:58:06;;;;;;;9.93;4.97;;;;;;;23.07;46.11;96748.78;2077589;28;20198;-59
2023/05/29 08:59:08;;;;;;;18.83;5.20;;;;;;;23.37;46.25;96760.22;2077679;28;20201;-59
2023/05/29 09:00:16;;;;;;;9.82;5.30;;;;;;;23.57;47.32;96755.66;2073109;28;20230;-59
2023/05/29 09:01:20;;;;;;;8.80;4.40;;;;;;;23.46;46.49;96762.84;2072164;28;20767;-59
2023/05/29 09:02:21;;;;;;;9.38;4.30;;;;;;;23.36;46.81;96762.03;2071891;28;20253;-59
2023/05/29 09:03:23;;;;;;;11.50;4.05;;;;;;;23.41;46.85;96767.75;2070199;28;20190;-56
2023/05/29 09:04:25;;;;;;;5.90;3.80;;;;;;;23.31;46.94;96753.63;2068575;28;20225;-58
2023/05/29 09:05:27;;;;;;;11.50;4.55;;;;;;;23.48;46.79;96757.38;2071458;28;20705;-57
2023/05/29 09:06:30;;;;;;;9.20;4.63;;;;;;;23.51;45.57;96761.56;2072918;28;20205;-58
2023/05/29 09:07:33;;;;;;;10.18;4.47;;;;;;;23.15;46.77;96760.41;2071593;28;20206;-57
2023/05/29 09:08:37;;;;;;;10.02;4.15;;;;;;;23.38;47.95;96764.56;2067877;28;20206;-57
2023/05/29 09:09:38;;;;;;;10.40;4.10;;;;;;;23.56;47.39;96770.78;2070942;28;20198;-57
2023/05/29 09:10:43;;;;;;;11.80;5.15;;;;;;;23.64;46.98;96762.03;2070735;28;20207;-58
2023/05/29 09:11:45;;;;;;;10.82;4.28;;;;;;;23.56;47.02;96773.44;2068895;28;20823;-56
2023/05/29 09:12:46;;;;;;;8.80;4.03;;;;;;;23.52;46.60;96774.72;2069538;28;20222;-57
2023/05/29 09:13:48;;;;;;;7.82;4.03;;;;;;;23.73;46.97;96769.19;2071184;28;20671;-57
2023/05/29 09:14:49;;;;;;;7.78;3.85;;;;;;;23.77;45.81;96777.72;2068964;28;20681;-57
2023/05/29 09:18:41;;;;;;;10.68;4.20;;;;;;;23.64;47.09;96776.22;2090535;27;20554;-58
2023/05/29 09:19:44;;;;;;;11.18;4.50;;;;;;;23.83;47.32;96774.44;2083318;28;20258;-58
2023/05/29 09:20:46;;;;;;;9.23;4.18;;;;;;;23.92;46.59;96765.59;2069194;28;20855;-59
2023/05/29 09:21:48;;;;;;;8.25;4.22;;;;;;;24.01;46.59;96776.34;2069673;28;20209;-59
2023/05/29 09:22:57;;;;;;;10.02;5.22;;;;;;;24.03;46.17;96777.03;2079283;28;20667;-58
2023/05/29 09:24:05;;;;;;;7.68;3.60;;;;;;;24.27;46.50;96785.28;2077083;28;20244;-58
2023/05/29 09:25:08;;;;;;;9.00;4.13;;;;;;;23.83;46.46;96777.09;2070341;28;20223;-59
2023/05/29 09:26:14;;;;;;;10.88;4.63;;;;;;;23.68;47.22;96779.44;2069457;28;20199;-61
2023/05/29 09:27:15;;;;;;;9.25;3.85;;;;;;;23.92;47.41;96767.41;2071712;28;20281;-61
2023/05/29 09:28:18;;;;;;;13.18;4.78;;;;;;;23.74;46.93;96778.00;2071500;28;20195;-61
2023/05/29 09:29:21;;;;;;;8.93;4.88;;;;;;;24.13;46.49;96783.97;2068844;28;20191;-62
2023/05/29 09:30:43;;;;;;;13.32;4.38;;;;;;;24.45;46.33;96784.47;2068065;28;20356;-61
2023/05/29 09:31:49;;;;;;;8.32;4.72;;;;;;;24.51;43.82;96780.38;2073433;28;20202;-59
2023/05/29 09:32:54;;;;;;;13.32;4.60;;;;;;;24.42;45.25;96784.78;2071084;28;20226;-57
2023/05/29 09:34:02;;;;;;;11.63;4.82;;;;;;;24.31;45.49;96793.00;2070495;28;20203;-57
2023/05/29 09:35:04;;;;;;;11.90;4.55;;;;;;;24.38;45.26;96792.25;2069067;28;20221;-56
2023/05/29 09:36:07;;;;;;;8.48;4.75;;;;;;;24.58;44.78;96784.06;2071658;28;20234;-56
2023/05/29 09:37:11;;;;;;;9.50;4.70;;;;;;;24.33;44.82;96793.66;2073275;28;20334;-57
2023/05/29 09:38:17;;;;;;;9.68;4.95;;;;;;;24.34;45.05;96782.88;2069876;28;20359;-56
2023/05/29 09:39:41;;;;;;;9.80;3.70;;;;;;;24.31;44.93;96788.50;2073655;28;20199;-56
2023/05/29 09:40:46;;;;;;;18.83;5.03;;;;;;;24.50;44.51;96784.00;2069358;28;20253;-57
2023/05/29 09:41:48;;;;;;;9.00;4.25;;;;;;;24.00;45.66;96780.84;2070414;28;20203;-56
2023/05/29 09:42:49;;;;;;;8.32;4.30;;;;;;;24.26;45.76;96780.97;2071354;28;20203;-57
2023/05/29 09:43:51;;;;;;;10.43;4.72;;;;;;;24.69;45.09;96780.38;2070046;28;20256;-59
2023/05/29 09:44:53;;;;;;;9.27;4.90;;;;;;;24.87;45.55;96783.03;2069656;28;20226;-59
2023/05/29 09:45:54;;;;;;;8.45;4.80;;;;;;;24.33;43.73;96786.53;2069091;28;20199;-59
2023/05/29 09:47:00;;;;;;;8.73;4.07;;;;;;;24.59;44.49;96789.28;2069497;28;20235;-59
2023/05/29 09:48:02;;;;;;;8.48;4.40;;;;;;;24.26;43.68;96783.63;2069057;28;20251;-59
2023/05/29 09:49:10;;;;;;;8.77;3.88;;;;;;;24.57;44.57;96791.25;2069373;28;20196;-59
2023/05/29 09:50:20;;;;;;;12.60;4.65;;;;;;;24.85;44.41;96788.53;2067729;28;20305;-62
2023/05/29 09:51:23;;;;;;;7.47;4.32;;;;;;;24.87;44.87;96796.38;2069322;28;20255;-59
2023/05/29 09:52:30;;;;;;;8.10;4.63;;;;;;;25.14;44.49;96794.56;2069900;28;20196;-59
2023/05/29 09:53:31;;;;;;;7.95;4.60;;;;;;;25.08;44.05;96796.88;2070011;28;20221;-58
2023/05/29 09:54:35;;;;;;;12.20;4.25;;;;;;;25.16;43.29;96795.25;2068917;28;20258;-59
2023/05/29 09:55:37;;;;;;;10.00;4.35;;;;;;;25.15;43.75;96786.38;2069237;28;20199;-59
2023/05/29 09:56:42;;;;;;;9.63;4.30;;;;;;;25.30;42.72;96793.84;2069555;28;20676;-59
2023/05/29 09:57:46;;;;;;;16.67;4.60;;;;;;;25.20;43.66;96799.28;2068991;28;20205;-61
2023/05/29 09:58:49;;;;;;;7.68;4.22;;;;;;;25.49;42.89;96793.63;2069785;28;20274;-61
2023/05/29 09:59:52;;;;;;;10.32;3.90;;;;;;;25.48;42.71;96783.94;2068809;28;20229;-64
2023/05/29 10:00:54;;;;;;;7.90;3.97;;;;;;;25.19;44.02;96795.78;2069780;28;20201;-61
2023/05/29 10:02:04;;;;;;;9.63;4.15;;;;;;;24.97;43.61;96785.59;2069975;28;20216;-61
2023/05/29 10:03:06;;;;;;;10.10;4.38;;;;;;;25.01;43.92;96778.94;2069359;28;20240;-61
2023/05/29 10:04:11;;;;;;;7.80;4.15;;;;;;;25.32;43.56;96789.16;2068766;28;20213;-60
2023/05/29 10:05:15;;;;;;;10.07;4.32;;;;;;;25.48;43.70;96775.09;2068238;28;20290;-61
2023/05/29 10:06:20;;;;;;;8.77;4.32;;;;;;;25.58;43.24;96786.50;2069306;28;20208;-61
2023/05/29 10:07:27;;;;;;;13.88;4.38;;;;;;;25.05;43.11;96788.31;2069530;28;20629;-60
2023/05/29 10:08:31;;;;;;;9.43;3.95;;;;;;;25.35;43.64;96784.34;2069526;28;20193;-61
2023/05/29 10:09:35;;;;;;;11.35;4.60;;;;;;;25.19;44.04;96786.91;2068533;28;20718;-61
2023/05/29 10:10:38;;;;;;;11.77;4.15;;;;;;;25.21;43.94;96772.41;2069583;28;20243;-61
2023/05/29 10:11:42;;;;;;;7.85;3.92;;;;;;;25.64;43.98;96777.03;2069463;28;20243;-61
2023/05/29 10:12:47;;;;;;;9.93;4.20;;;;;;;25.34;44.28;96784.50;2068095;28;20210;-60
2023/05/29 10:13:51;;;;;;;10.15;3.90;;;;;;;25.45;43.75;96778.94;2069250;28;20286;-61
2023/05/29 10:14:58;;;;;;;7.68;3.70;;;;;;;25.68;43.69;96776.53;2068269;28;20278;-61
2023/05/29 10:16:03;;;;;;;10.30;4.40;;;;;;;25.89;43.42;96765.41;2069685;28;20296;-60
2023/05/29 10:17:08;;;;;;;11.80;4.50;;;;;;;25.94;43.26;96772.13;2069332;28;20293;-60
2023/05/29 10:18:28;;;;;;;7.28;3.85;;;;;;;25.75;42.95;96760.69;2069078;28;20835;-61
2023/05/29 10:19:32;;;;;;;9.32;4.03;;;;;;;25.82;41.34;96767.06;2068368;28;20439;-61
2023/05/29 10:20:35;;;;;;;9.07;4.00;;;;;;;25.31;41.90;96766.97;2069941;28;20562;-61
2023/05/29 10:21:39;;;;;;;9.15;4.13;;;;;;;25.78;41.07;96775.59;2069516;28;20198;-61
2023/05/29 10:22:46;;;;;;;7.88;4.18;;;;;;;26.02;42.09;96772.16;2069860;28;20206;-61
2023/05/29 10:23:49;;;;;;;8.38;3.85;;;;;;;26.23;41.98;96772.56;2068941;28;20988;-61
2023/05/29 10:24:52;;;;;;;12.43;4.47;;;;;;;26.07;42.11;96773.34;2068626;28;20734;-61
2023/05/29 10:25:59;;;;;;;8.82;4.30;;;;;;;26.10;42.96;96772.19;2069824;28;20771;-61
2023/05/29 10:27:02;;;;;;;10.25;4.85;;;;;;;26.23;40.95;96775.25;2068382;28;20237;-61
2023/05/29 10:28:04;;;;;;;6.55;3.67;;;;;;;26.49;40.70;96770.78;2070016;28;20195;-61
2023/05/29 10:29:22;;;;;;;8.15;4.50;;;;;;;26.53;41.01;96777.47;2069703;28;20241;-61
2023/05/29 10:30:35;;;;;;;7.60;3.78;;;;;;;26.20;40.65;96732.75;2062727;28;20218;-61
2023/05/29 10:32:07;;;;;;;9.63;3.45;;;;;;;26.46;40.43;96763.91;2063356;28;20253;-61
2023/05/29 10:33:34;;;;;;;9.65;4.22;;;;;;;26.40;41.38;96764.56;2064323;28;20202;-61
2023/05/29 10:34:57;;;;;;;9.25;4.20;;;;;;;26.40;41.81;96772.59;2063427;28;20828;-61
2023/05/29 10:36:18;;;;;;;11.45;4.53;;;;;;;26.44;41.21;96771.25;2063252;28;20195;-61
2023/05/29 10:37:34;;;;;;;7.93;4.07;;;;;;;25.39;42.21;96763.53;2063108;28;20202;-61
2023/05/29 10:38:37;;;;;;;9.45;4.82;;;;;;;25.96;41.18;96764.78;2063358;28;20206;-61
2023/05/29 10:39:39;;;;;;;11.60;4.07;;;;;;;25.56;40.76;96762.63;2063490;28;20822;-61
2023/05/29 10:40:40;;;;;;;9.82;4.47;;;;;;;24.26;42.04;96766.78;2064337;28;20213;-60
2023/05/29 10:41:42;;;;;;;12.95;5.25;;;;;;;25.30;41.74;96767.13;2063655;28;20299;-61
2023/05/29 10:42:45;;;;;;;6.80;4.30;;;;;;;26.04;41.79;96767.47;2064096;28;20194;-61
2023/05/29 10:43:51;;;;;;;9.80;3.97;;;;;;;26.21;41.27;96763.84;2063166;28;20232;-60
2023/05/29 10:44:52;;;;;;;7.63;3.80;;;;;;;26.62;41.04;96762.25;2062776;28;20226;-61
2023/05/29 10:45:54;;;;;;;7.75;3.90;;;;;;;26.79;41.27;96765.78;2063593;28;20247;-61
2023/05/29 10:46:57;;;;;;;14.77;5.15;;;;;;;26.66;39.98;96760.91;2063507;28;20202;-61
2023/05/29 10:48:10;;;;;;;7.57;3.90;;;;;;;26.81;38.71;96761.94;2063803;28;20198;-60
2023/05/29 10:49:20;;;;;;;8.57;4.75;;;;;;;26.55;39.47;96762.06;2063735;28;20195;-61
2023/05/29 10:50:38;;;;;;;9.82;4.18;;;;;;;26.78;39.84;96758.75;2063096;28;20274;-61
2023/05/29 10:51:40;;;;;;;8.73;4.30;;;;;;;27.16;40.08;96767.94;2063840;28;20203;-61
2023/05/29 10:52:46;;;;;;;9.95;5.00;;;;;;;26.93;40.16;96764.25;2064083;28;20239;-61
2023/05/29 10:53:48;;;;;;;9.88;3.65;;;;;;;26.87;41.23;96771.16;2063587;28;20207;-63
2023/05/29 10:54:52;;;;;;;7.72;4.05;;;;;;;27.06;41.36;96764.59;2063122;28;20306;-61
2023/05/29 10:55:54;;;;;;;7.95;4.10;;;;;;;27.27;41.03;96771.25;2063438;28;20198;-61
2023/05/29 10:57:00;;;;;;;8.20;4.15;;;;;;;27.40;42.11;96768.94;2063857;28;20700;-61
2023/05/29 10:58:12;;;;;;;12.75;4.30;;;;;;;27.48;41.08;96768.06;2062395;28;20217;-61
2023/05/29 10:59:17;;;;;;;11.65;4.10;;;;;;;27.57;41.02;96766.19;2063492;28;20610;-61
2023/05/29 11:00:23;;;;;;;9.50;4.25;;;;;;;27.62;40.32;96763.81;2062696;28;20759;-61
2023/05/29 11:01:26;;;;;;;6.72;3.53;;;;;;;27.91;40.99;96763.19;2062824;28;20318;-61
2023/05/29 11:02:28;;;;;;;10.82;3.88;;;;;;;27.64;40.61;96759.09;2062886;28;20207;-61
2023/05/29 11:03:31;;;;;;;6.93;4.47;;;;;;;27.62;41.07;96763.81;2062755;28;20692;-61
2023/05/29 11:04:34;;;;;;;7.60;3.90;;;;;;;27.40;41.46;96757.34;2063039;28;20249;-61
2023/05/29 11:05:56;;;;;;;10.65;4.03;;;;;;;27.72;39.80;96766.28;2064015;28;20282;-62
2023/05/29 11:06:58;;;;;;;6.25;3.60;;;;;;;27.24;41.03;96753.69;2062804;28;20203;-62
2023/05/29 11:08:03;;;;;;;7.15;3.83;;;;;;;27.35;40.61;96747.09;2064125;28;20699;-62
2023/05/29 11:09:08;;;;;;;11.10;4.00;;;;;;;27.74;40.28;96754.38;2062781;28;20192;-62
2023/05/29 11:10:15;;;;;;;13.15;4.10;;;;;;;27.26;41.22;96740.09;2062681;28;20253;-62
2023/05/29 11:11:26;;;;;;;8.10;3.83;;;;;;;27.42;39.79;96758.84;2063796;28;20230;-62
2023/05/29 11:12:35;;;;;;;9.98;4.57;;;;;;;27.47;40.19;96751.13;2063801;28;20195;-62
2023/05/29 11:13:40;;;;;;;10.80;4.25;;;;;;;27.93;39.37;96754.97;2063208;28;20226;-62
2023/05/29 11:14:53;;;;;;;9.02;3.70;;;;;;;27.89;38.52;96756.34;2062704;28;20794;-62
2023/05/29 11:16:15;;;;;;;7.80;3.60;;;;;;;28.16;37.88;96758.56;2063335;28;20293;-60
2023/05/29 11:17:44;;;;;;;9.48;3.95;;;;;;;27.94;39.02;96759.31;2063771;28;20353;-60
2023/05/29 11:18:48;;;;;;;9.07;3.70;;;;;;;27.78;38.84;96749.50;2064006;28;20210;-60
2023/05/29 11:19:51;;;;;;;7.25;3.92;;;;;;;28.12;39.56;96751.03;2061904;28;20226;-60
2023/05/29 11:20:59;;;;;;;9.13;4.10;;;;;;;28.17;38.56;96759.38;2064067;28;20289;-60
2023/05/29 11:22:15;;;;;;;8.13;3.55;;;;;;;28.31;37.79;96765.84;2063838;28;20206;-60
2023/05/29 11:23:17;;;;;;;11.88;4.63;;;;;;;28.09;37.89;96760.28;2063356;28;20198;-60
2023/05/29 11:24:24;;;;;;;6.15;3.53;;;;;;;28.49;37.86;96750.28;2062385;28;20203;-60
2023/05/29 11:25:27;;;;;;;7.63;3.63;;;;;;;28.81;37.14;96750.22;2063144;28;20293;-60
2023/05/29 11:26:30;;;;;;;9.20;4.33;;;;;;;28.41;37.66;96749.53;2064146;28;20483;-60
2023/05/29 11:27:31;;;;;;;12.97;3.90;;;;;;;28.59;37.76;96754.59;2063648;28;20512;-60
2023/05/29 11:28:33;;;;;;;6.70;3.50;;;;;;;28.55;37.72;96747.91;2063860;28;20435;-60
2023/05/29 11:29:35;;;;;;;6.13;3.10;;;;;;;28.81;37.23;96748.38;2062117;28;20522;-60
2023/05/29 11:30:48;;;;;;;9.67;3.50;;;;;;;29.21;35.77;96750.84;2062779;28;20429;-60
2023/05/29 11:32:05;;;;;;;7.70;3.70;;;;;;;26.95;37.05;96755.06;2062376;28;20436;-62
2023/05/29 11:33:08;;;;;;;9.82;3.78;;;;;;;27.73;37.64;96750.03;2063291;28;20498;-62
2023/05/29 11:34:14;;;;;;;8.90;3.63;;;;;;;28.33;38.05;96753.91;2062806;28;20210;-62
2023/05/29 11:35:19;;;;;;;9.00;3.38;;;;;;;28.72;37.65;96748.63;2063117;28;20219;-62
2023/05/29 11:36:22;;;;;;;8.53;3.80;;;;;;;28.77;36.84;96754.28;2063898;28;20210;-62
2023/05/29 11:37:23;;;;;;;8.50;3.43;;;;;;;28.65;36.50;96752.00;2063588;28;20437;-62
2023/05/29 11:38:26;;;;;;;11.40;3.90;;;;;;;28.93;35.62;96747.94;2063788;28;20459;-62
2023/05/29 11:39:28;;;;;;;9.57;4.17;;;;;;;29.12;35.30;96750.09;2062468;28;20473;-62
2023/05/29 11:40:35;;;;;;;9.33;4.27;;;;;;;29.24;35.39;96747.81;2063989;28;20433;-62
2023/05/29 11:41:37;;;;;;;9.67;3.90;;;;;;;29.21;35.52;96741.97;2062432;28;20865;-62
2023/05/29 11:42:48;;;;;;;7.60;3.30;;;;;;;29.44;35.19;96740.03;2063819;28;20871;-62
2023/05/29 11:43:57;;;;;;;5.40;3.13;;;;;;;29.70;34.94;96745.97;2060173;28;20428;-62
2023/05/29 11:45:16;;;;;;;8.83;4.17;;;;;;;29.76;34.49;96742.53;2056225;28;20515;-63
2023/05/29 11:46:19;;;;;;;9.03;3.53;;;;;;;28.11;33.94;96738.63;2063277;28;20428;-63
2023/05/29 11:47:22;;;;;;;8.10;3.40;;;;;;;27.77;35.69;96742.44;2063710;28;20852;-62
2023/05/29 11:48:24;;;;;;;8.53;3.90;;;;;;;28.19;35.99;96733.22;2063661;28;20425;-63
2023/05/29 11:49:31;;;;;;;7.10;3.60;;;;;;;28.47;36.58;96741.56;2062828;28;21043;-63
2023/05/29 11:50:36;;;;;;;7.60;3.60;;;;;;;28.39;36.16;96744.34;2063218;28;20504;-63
2023/05/29 11:51:42;;;;;;;7.03;3.92;;;;;;;28.65;36.97;96741.25;2063720;28;20425;-62
2023/05/29 11:52:46;;;;;;;7.50;3.43;;;;;;;28.46;36.78;96731.84;2063034;28;20670;-62
2023/05/29 11:53:49;;;;;;;7.20;3.27;;;;;;;28.93;35.89;96735.34;2063724;28;20528;-62
2023/05/29 11:54:53;;;;;;;10.88;4.03;;;;;;;28.71;36.32;96730.84;2062471;28;20531;-60
2023/05/29 11:56:06;;;;;;;7.37;3.60;;;;;;;28.80;36.50;96738.66;2063669;28;20215;-60
2023/05/29 11:57:08;;;;;;;7.23;3.47;;;;;;;28.62;36.62;96738.09;2063475;28;20532;-60
2023/05/29 11:58:09;;;;;;;8.50;3.70;;;;;;;28.10;37.37;96743.16;2062776;28;21247;-60
2023/05/29 11:59:11;;;;;;;9.17;3.90;;;;;;;28.22;37.13;96743.59;2063884;28;20511;-60
2023/05/29 12:00:18;;;;;;;6.67;3.33;;;;;;;28.59;35.51;96738.47;2062822;28;20468;-60
2023/05/29 12:01:20;;;;;;;6.30;3.47;;;;;;;28.78;34.96;96745.22;2062980;28;20460;-60
2023/05/29 12:02:22;;;;;;;8.20;3.17;;;;;;;29.07;34.42;96743.63;2063707;28;20508;-61
2023/05/29 12:03:24;;;;;;;7.63;3.67;;;;;;;29.17;34.39;96745.00;2063692;28;20912;-61
2023/05/29 12:04:26;;;;;;;7.80;2.90;;;;;;;29.55;34.87;96743.31;2063013;28;21058;-60
2023/05/29 12:05:28;;;;;;;9.70;3.20;;;;;;;29.30;35.94;96733.66;2062772;28;20535;-60
2023/05/29 12:06:38;;;;;;;8.60;3.10;;;;;;;29.06;35.38;96745.47;2062201;28;20467;-60
2023/05/29 12:07:56;;;;;;;10.20;3.20;;;;;;;29.28;35.21;96714.19;2063119;28;20458;-61
2023/05/29 12:08:57;;;;;;;12.00;3.80;;;;;;;29.37;35.15;96741.81;2063453;28;20432;-60
2023/05/29 12:10:13;;;;;;;5.70;2.97;;;;;;;29.37;34.97;96735.59;2062566;28;20487;-60
2023/05/29 12:11:23;;;;;;;8.67;3.90;;;;;;;29.79;34.42;96737.63;2063762;28;21069;-60
2023/05/29 12:12:26;;;;;;;7.33;3.73;;;;;;;29.99;34.33;96744.28;2062737;28;20463;-61
2023/05/29 12:13:28;;;;;;;6.03;3.50;;;;;;;29.96;33.57;96737.44;2063123;28;20437;-60
2023/05/29 12:14:30;;;;;;;7.50;3.27;;;;;;;29.90;34.55;96730.97;2063037;28;20436;-60
2023/05/29 12:15:31;;;;;;;9.20;3.87;;;;;;;29.60;34.41;96743.59;2063900;28;20432;-61
2023/05/29 12:16:34;;;;;;;7.97;3.60;;;;;;;29.06;34.10;96734.72;2063611;28;20513;-60
2023/05/29 12:17:36;;;;;;;4.53;2.77;;;;;;;29.45;33.89;96736.34;2063041;28;20964;-60
2023/05/29 12:18:38;;;;;;;6.47;3.20;;;;;;;29.52;33.93;96724.84;2062886;28;20680;-62
2023/05/29 12:19:40;;;;;;;8.10;3.27;;;;;;;29.35;34.56;96733.09;2062763;28;20556;-60
2023/05/29 12:20:42;;;;;;;7.13;3.63;;;;;;;29.05;34.69;96729.53;2063512;28;20440;-60
2023/05/29 12:21:44;;;;;;;9.97;3.40;;;;;;;29.48;34.21;96736.00;2063610;28;20440;-60
2023/05/29 12:22:46;;;;;;;7.47;3.00;;;;;;;29.71;33.43;96748.50;2063182;28;21104;-60
2023/05/29 12:23:47;;;;;;;6.17;2.93;;;;;;;29.83;33.21;96742.63;2061942;28;20502;-60
2023/05/29 12:24:51;;;;;;;9.50;3.33;;;;;;;30.00;33.22;96741.41;2062787;28;20461;-60
2023/05/29 12:25:54;;;;;;;9.03;3.10;;;;;;;30.31;33.02;96737.63;2062961;28;20448;-60
2023/05/29 12:26:56;;;;;;;7.53;3.40;;;;;;;29.05;34.35;96742.97;2063389;28;20804;-60
2023/05/29 12:27:58;;;;;;;12.73;3.50;;;;;;;29.72;32.96;96739.38;2062902;28;21043;-61
2023/05/29 12:29:04;;;;;;;14.90;3.63;;;;;;;29.39;32.97;96736.25;2063463;28;20425;-60
2023/05/29 12:30:07;;;;;;;7.03;2.50;;;;;;;29.50;33.88;96738.50;2062744;28;20465;-60
2023/05/29 12:31:11;;;;;;;4.90;2.60;;;;;;;29.76;33.67;96743.38;2062294;28;20452;-61
2023/05/29 12:32:13;;;;;;;8.00;3.00;;;;;;;30.10;33.16;96738.41;2063499;28;20527;-60
2023/05/29 12:33:31;;;;;;;5.90;2.83;;;;;;;29.67;32.18;96738.28;2063347;28;20452;-61
2023/05/29 12:34:36;;;;;;;10.10;3.70;;;;;;;30.20;32.97;96738.13;2062472;28;20432;-61
2023/05/29 12:35:38;;;;;;;7.10;2.80;;;;;;;30.20;32.79;96738.94;2061549;28;20963;-60
2023/05/29 12:36:43;;;;;;;6.80;3.20;;;;;;;30.05;33.05;96735.47;2063458;28;20425;-61
2023/05/29 12:37:54;;;;;;;5.10;2.83;;;;;;;29.69;32.97;96737.09;2062603;28;20457;-60
2023/05/29 12:38:57;;;;;;;11.03;3.10;;;;;;;29.80;33.11;96733.91;2062658;28;20471;-60
2023/05/29 12:40:09;;;;;;;12.90;2.97;;;;;;;30.17;32.90;96736.66;2061571;28;20523;-60
2023/05/29 12:41:24;;;;;;;6.87;3.13;;;;;;;30.51;32.38;96740.53;2062363;28;20450;-60
2023/05/29 12:42:25;;;;;;;7.23;3.17;;;;;;;30.31;32.64;96732.25;2062760;28;20525;-60
2023/05/29 12:43:27;;;;;;;10.50;3.07;;;;;;;30.20;32.15;96738.13;2063342;28;20872;-60
2023/05/29 12:44:29;;;;;;;6.67;2.70;;;;;;;30.01;32.16;96731.50;2061464;28;20516;-60
2023/05/29 12:45:32;;;;;;;6.27;3.20;;;;;;;30.06;31.90;96737.97;2063608;28;20489;-60
2023/05/29 12:46:43;;;;;;;9.03;2.80;;;;;;;30.10;32.40;96744.63;2067560;28;20954;-61
2023/05/29 12:47:49;;;;;;;9.83;2.80;;;;;;;30.09;32.23;96740.28;2065590;28;20424;-61
2023/05/29 12:48:55;;;;;;;5.50;3.47;;;;;;;29.20;33.66;96751.06;2063311;28;20444;-60
2023/05/29 12:49:56;;;;;;;4.60;2.70;;;;;;;29.62;32.57;96749.59;2062910;28;21003;-60
2023/05/29 12:50:58;;;;;;;5.17;2.50;;;;;;;30.05;32.49;96738.16;2062304;28;20437;-60
2023/05/29 12:52:07;;;;;;;6.00;3.57;;;;;;;29.99;31.05;96736.22;2062654;28;21020;-62
2023/05/29 12:53:12;;;;;;;8.37;3.00;;;;;;;30.11;31.08;96740.91;2062822;28;20491;-60
2023/05/29 12:54:15;;;;;;;10.20;2.87;;;;;;;30.36;31.29;96745.09;2063538;28;20436;-60
2023/05/29 12:55:16;;;;;;;7.73;3.30;;;;;;;30.49;31.87;96737.19;2061838;28;20499;-61
2023/05/29 12:56:18;;;;;;;7.73;3.00;;;;;;;30.27;32.38;96739.00;2063113;28;20931;-60
2023/05/29 12:57:19;;;;;;;6.50;3.37;;;;;;;29.67;32.43;96735.59;2062558;28;20424;-61
2023/05/29 12:58:21;;;;;;;4.83;2.77;;;;;;;29.85;32.12;96743.28;2063510;28;20437;-61
2023/05/29 12:59:23;;;;;;;6.03;3.70;;;;;;;30.12;32.16;96739.06;2063540;28;20432;-61
2023/05/29 13:00:26;;;;;;;12.03;3.30;;;;;;;30.53;31.95;96751.94;2070341;28;20471;-60
2023/05/29 13:01:27;;;;;;;14.50;3.10;;;;;;;30.04;31.12;96744.56;2071433;28;20518;-60
2023/05/29 13:02:29;;;;;;;9.53;2.77;;;;;;;29.89;31.55;96744.59;2071440;28;20423;-60
2023/05/29 13:03:31;;;;;;;7.23;3.23;;;;;;;29.74;32.24;96747.28;2071607;28;20424;-60
2023/05/29 13:04:33;;;;;;;3.70;2.83;;;;;;;29.98;31.69;96740.78;2071081;28;20546;-60
2023/05/29 13:05:36;;;;;;;4.37;2.80;;;;;;;30.26;30.80;96735.50;2071004;28;20431;-60
2023/05/29 13:06:38;;;;;;;5.50;2.97;;;;;;;30.23;30.79;96729.66;2071644;28;20436;-60
2023/05/29 13:07:40;;;;;;;4.70;2.63;;;;;;;30.28;31.61;96735.28;2071651;28;20454;-60
2023/05/29 13:08:42;;;;;;;5.33;2.60;;;;;;;30.23;31.29;96737.72;2071230;28;20926;-60
2023/05/29 13:09:43;;;;;;;7.47;3.43;;;;;;;30.44;30.56;96736.91;2065001;28;20479;-60
2023/05/29 13:10:45;;;;;;;5.20;3.50;;;;;;;30.13;31.91;96741.56;2065220;28;20448;-60
2023/05/29 13:11:47;;;;;;;7.00;2.80;;;;;;;30.27;31.29;96741.69;2071546;28;20455;-60
2023/05/29 13:12:53;;;;;;;5.50;3.20;;;;;;;30.75;31.17;96738.47;2071305;28;20423;-60
2023/05/29 13:13:55;;;;;;;4.40;3.40;;;;;;;30.69;30.40;96736.53;2071644;28;20428;-60
2023/05/29 13:14:56;;;;;;;5.90;3.47;;;;;;;30.52;30.73;96736.81;2070986;28;21189;-60
2023/05/29 13:15:58;;;;;;;6.83;3.10;;;;;;;30.52;31.79;96741.38;2070934;28;20989;-60
2023/05/29 13:16:59;;;;;;;4.23;3.10;;;;;;;30.75;31.35;96751.94;2071648;28;20511;-61
2023/05/29 13:18:01;;;;;;;13.87;3.30;;;;;;;30.45;30.52;96731.34;2071358;28;20463;-59
2023/05/29 13:19:02;;;;;;;6.13;3.00;;;;;;;29.89;30.04;96718.53;2070217;28;21042;-61
2023/05/29 13:20:07;;;;;;;5.40;3.17;;;;;;;30.33;31.03;96729.34;2062506;28;20465;-59
2023/05/29 13:21:10;;;;;;;5.77;2.60;;;;;;;30.59;31.00;96726.13;2061974;28;20508;-59
2023/05/29 13:22:11;;;;;;;5.50;2.70;;;;;;;30.76;31.41;96732.06;2071401;28;20451;-59
2023/05/29 13:23:13;;;;;;;6.40;2.60;;;;;;;30.53;31.08;96726.88;2071320;28;20447;-58
2023/05/29 13:24:14;;;;;;;4.80;2.60;;;;;;;30.29;31.08;96721.63;2071243;28;20494;-58
2023/05/29 13:25:17;;;;;;;10.10;3.00;;;;;;;30.28;30.83;96729.91;2063479;28;20452;-61
2023/05/29 13:26:18;;;;;;;4.10;2.53;;;;;;;30.25;31.12;96730.31;2062299;28;20967;-60
2023/05/29 13:27:20;;;;;;;12.40;2.80;;;;;;;30.55;30.64;96730.19;2071612;28;20431;-61